Time;durP1;ratioP1;P1;durP2;ratioP2;P2;SDS_P1;SDS_P2;PMS_P1;PMS_P2;Temp;Humidity;BMP_temperature;BMP_pressure;BME280_temperature;BME280_humidity;BME280_pressure;Samples;Min_cycle;Max_cycle;Signal;HPM_P1;HPM_P2
2021/01/31 00:00:44;;;;;;;36.95;15.48;;;;;;;-4.21;91.90;96857.44;5094605;28;20117;-75
2021/01/31 00:03:26;;;;;;;32.95;14.25;;;;;;;-4.27;92.07;96844.84;5095027;28;20102;-75
2021/01/31 00:05:58;;;;;;;28.52;12.52;;;;;;;-4.35;91.89;96845.09;5077254;28;20048;-74
2021/01/31 00:08:25;;;;;;;26.17;12.35;;;;;;;-4.37;91.32;96857.91;5094988;28;20071;-74
2021/01/31 00:10:53;;;;;;;23.02;12.18;;;;;;;-4.26;92.91;96864.41;5095056;28;20076;-75
2021/01/31 00:13:21;;;;;;;35.53;15.15;;;;;;;-4.27;92.24;96870.41;5094199;28;20118;-75
2021/01/31 00:15:50;;;;;;;28.48;12.10;;;;;;;-4.32;92.45;96856.03;5094039;28;20135;-75
2021/01/31 00:18:21;;;;;;;35.47;14.93;;;;;;;-4.40;91.87;96859.72;5094354;28;20395;-75
2021/01/31 00:20:50;;;;;;;26.88;12.15;;;;;;;-4.32;92.16;96866.28;5092790;28;20040;-75
2021/01/31 00:23:17;;;;;;;24.92;11.27;;;;;;;-4.42;90.77;96857.22;5094351;28;20047;-74
2021/01/31 00:25:43;;;;;;;26.05;11.73;;;;;;;-4.46;91.19;96850.53;5093195;28;20044;-74
2021/01/31 00:28:11;;;;;;;22.52;10.50;;;;;;;-4.35;91.25;96868.09;5093967;28;20044;-75
2021/01/31 00:30:42;;;;;;;20.98;9.13;;;;;;;-4.45;90.16;96867.53;5094094;28;20396;-74
2021/01/31 00:33:17;;;;;;;20.15;9.95;;;;;;;-4.51;90.56;96872.84;5095159;28;20063;-76
2021/01/31 00:35:44;;;;;;;21.15;10.75;;;;;;;-4.64;89.13;96861.34;5093332;28;20499;-74
2021/01/31 00:38:16;;;;;;;21.75;10.32;;;;;;;-4.62;90.33;96862.94;5093413;28;20460;-75
2021/01/31 00:40:42;;;;;;;21.92;9.65;;;;;;;-4.59;89.57;96870.53;5093925;28;20062;-75
2021/01/31 00:43:09;;;;;;;19.63;9.80;;;;;;;-4.62;89.91;96864.69;5093876;28;20060;-74
2021/01/31 00:45:35;;;;;;;19.02;9.68;;;;;;;-4.72;90.31;96877.75;5092346;28;20048;-75
2021/01/31 00:48:01;;;;;;;18.00;8.32;;;;;;;-4.72;89.36;96884.59;5093570;28;20059;-74
2021/01/31 00:50:32;;;;;;;19.48;8.70;;;;;;;-4.88;89.02;96879.94;5094069;28;20131;-74
2021/01/31 00:52:58;;;;;;;21.80;9.55;;;;;;;-5.06;88.84;96880.47;5094212;28;20052;-74
2021/01/31 00:55:24;;;;;;;16.48;7.22;;;;;;;-5.21;89.18;96879.16;5094148;28;20505;-74
2021/01/31 00:57:50;;;;;;;17.63;7.95;;;;;;;-5.24;89.73;96877.53;5094112;28;20499;-74
2021/01/31 01:00:31;;;;;;;14.68;7.43;;;;;;;-5.36;90.60;96871.94;5093522;28;20065;-74
2021/01/31 01:02:58;;;;;;;16.30;7.90;;;;;;;-5.44;90.08;96870.44;5093787;28;20380;-74
2021/01/31 01:05:28;;;;;;;16.70;7.97;;;;;;;-5.55;89.45;96876.72;5094174;28;20044;-74
2021/01/31 01:07:56;;;;;;;18.08;8.05;;;;;;;-5.67;89.43;96870.22;5093736;28;20051;-74
2021/01/31 01:10:30;;;;;;;17.10;7.63;;;;;;;-5.73;88.31;96867.81;5093029;28;20075;-74
2021/01/31 01:12:56;;;;;;;19.27;8.13;;;;;;;-5.79;88.40;96874.78;5094136;28;20044;-73
2021/01/31 01:15:26;;;;;;;15.10;7.40;;;;;;;-5.93;88.67;96877.69;5092485;28;20368;-74
2021/01/31 01:17:53;;;;;;;18.25;8.00;;;;;;;-6.07;88.38;96861.91;5093745;28;20063;-73
2021/01/31 01:20:20;;;;;;;18.02;8.68;;;;;;;-6.09;88.29;96878.97;5093075;28;20048;-74
2021/01/31 01:22:46;;;;;;;19.90;9.30;;;;;;;-6.17;88.87;96881.69;5093878;28;20040;-74
2021/01/31 01:25:15;;;;;;;18.77;8.48;;;;;;;-6.28;88.93;96880.31;5093434;28;20058;-74
2021/01/31 01:27:41;;;;;;;20.40;8.50;;;;;;;-6.30;89.09;96886.28;5092934;28;20051;-74
2021/01/31 01:30:15;;;;;;;21.85;8.93;;;;;;;-6.30;88.25;96878.63;5093370;28;20044;-74
2021/01/31 01:32:41;;;;;;;18.02;9.05;;;;;;;-6.37;88.59;96889.00;5093597;28;20411;-74
2021/01/31 01:35:09;;;;;;;20.42;9.02;;;;;;;-6.44;88.73;96879.81;5092100;28;20048;-74
2021/01/31 01:37:36;;;;;;;20.73;8.85;;;;;;;-6.44;88.42;96880.66;5093673;28;20048;-74
2021/01/31 01:40:09;;;;;;;19.40;9.45;;;;;;;-6.51;89.08;96871.47;5093667;28;20048;-74
2021/01/31 01:42:35;;;;;;;22.75;9.57;;;;;;;-6.56;89.06;96874.13;5093115;28;20055;-74
2021/01/31 01:45:00;;;;;;;21.75;9.05;;;;;;;-6.62;88.82;96881.09;5093210;28;20384;-73
2021/01/31 01:47:29;;;;;;;21.35;9.80;;;;;;;-6.69;88.92;96882.91;5095503;28;20048;-74
2021/01/31 01:50:05;;;;;;;21.02;9.38;;;;;;;-6.72;88.89;96882.97;5096062;28;20044;-73
2021/01/31 01:52:40;;;;;;;22.38;9.48;;;;;;;-6.92;89.32;96883.41;5096175;28;20188;-74
2021/01/31 01:55:12;;;;;;;23.25;10.10;;;;;;;-6.90;89.92;96886.78;5097756;28;20524;-74
2021/01/31 01:57:56;;;;;;;29.30;11.55;;;;;;;-7.02;90.25;96877.69;5095649;28;20063;-74
2021/01/31 02:00:23;;;;;;;28.75;10.20;;;;;;;-7.02;90.86;96877.69;5096918;28;20479;-74
2021/01/31 02:03:04;;;;;;;28.48;11.82;;;;;;;-7.09;90.87;96886.31;5096429;28;20040;-74
2021/01/31 02:05:30;;;;;;;30.73;11.93;;;;;;;-7.12;90.95;96888.94;5096966;28;20051;-74
2021/01/31 02:07:58;;;;;;;29.77;10.98;;;;;;;-7.21;90.76;96883.16;5096303;28;20059;-74
2021/01/31 02:10:25;;;;;;;24.98;11.73;;;;;;;-7.24;91.47;96890.03;5096527;28;20051;-74
2021/01/31 02:12:58;;;;;;;30.52;12.63;;;;;;;-7.29;91.52;96894.38;5097078;28;20082;-74
2021/01/31 02:15:25;;;;;;;33.05;11.85;;;;;;;-7.44;92.18;96891.25;5097572;28;20147;-74
2021/01/31 02:18:11;;;;;;;28.38;12.38;;;;;;;-7.37;92.11;96897.06;5095129;28;20082;-73
2021/01/31 02:21:11;;;;;;;30.23;14.13;;;;;;;-7.35;92.56;96903.00;5097034;28;20478;-74
2021/01/31 02:24:36;;;;;;;28.58;11.65;;;;;;;-7.42;92.38;96893.78;5077012;28;20090;-73
2021/01/31 02:27:23;;;;;;;31.95;12.45;;;;;;;-7.46;93.10;96899.78;5090128;28;20063;-74
2021/01/31 02:30:52;;;;;;;31.27;12.63;;;;;;;-7.61;92.97;96893.31;5096127;28;20047;-74
2021/01/31 02:33:38;;;;;;;27.33;12.25;;;;;;;-7.74;92.94;96888.44;5073774;28;20159;-73
2021/01/31 02:36:32;;;;;;;28.33;12.60;;;;;;;-7.76;93.26;96894.41;5073880;28;20102;-75
2021/01/31 02:39:28;;;;;;;31.52;12.07;;;;;;;-7.90;92.93;96896.38;5054520;28;20074;-75
2021/01/31 02:42:16;;;;;;;25.63;11.52;;;;;;;-7.92;93.78;96892.13;5072945;28;20061;-74
2021/01/31 02:45:02;;;;;;;31.85;13.50;;;;;;;-7.87;94.63;96896.31;5072679;28;20150;-74
2021/01/31 02:47:32;;;;;;;36.22;14.15;;;;;;;-7.82;95.33;96899.59;5072429;28;20132;-75
2021/01/31 02:50:32;;;;;;;36.47;14.35;;;;;;;-7.87;95.12;96903.94;5055530;28;20040;-75
2021/01/31 02:53:07;;;;;;;31.50;15.05;;;;;;;-7.95;95.30;96904.91;5055809;28;20052;-74
2021/01/31 02:55:43;;;;;;;32.72;14.90;;;;;;;-7.97;95.55;96898.16;5072709;28;20408;-74
2021/01/31 02:58:34;;;;;;;33.25;15.68;;;;;;;-8.01;95.53;96915.19;5072300;28;20056;-74
2021/01/31 03:01:15;;;;;;;35.13;14.98;;;;;;;-8.12;95.68;96906.91;5055938;28;20048;-74
2021/01/31 03:03:54;;;;;;;38.97;16.83;;;;;;;-8.07;96.00;96914.47;5066873;28;20059;-75
2021/01/31 03:06:29;;;;;;;32.22;13.38;;;;;;;-8.03;96.11;96914.38;5094276;28;20059;-74
2021/01/31 03:09:09;;;;;;;36.47;15.85;;;;;;;-8.08;95.65;96908.50;5093649;28;20119;-74
2021/01/31 03:12:00;;;;;;;45.55;15.02;;;;;;;-8.22;95.29;96910.44;5093888;28;20063;-74
2021/01/31 03:14:38;;;;;;;34.00;14.95;;;;;;;-8.22;95.63;96913.81;5078935;28;20051;-74
2021/01/31 03:17:17;;;;;;;35.42;14.48;;;;;;;-8.22;95.41;96918.91;5093725;28;20101;-75
2021/01/31 03:20:03;;;;;;;35.45;14.07;;;;;;;-8.36;95.35;96908.97;5093386;28;20425;-74
2021/01/31 03:22:41;;;;;;;31.85;14.23;;;;;;;-8.32;95.24;96914.84;5093673;28;20058;-74
2021/01/31 03:25:20;;;;;;;30.00;12.68;;;;;;;-8.33;94.82;96918.25;5094078;28;20158;-74
2021/01/31 03:27:46;;;;;;;36.70;14.15;;;;;;;-8.36;94.81;96924.22;5093561;28;20076;-74
2021/01/31 03:30:16;;;;;;;38.67;14.10;;;;;;;-8.45;94.54;96924.38;5094325;28;20455;-74
2021/01/31 03:32:41;;;;;;;34.05;14.02;;;;;;;-8.44;94.43;96923.53;5094386;28;20044;-74
2021/01/31 03:35:13;;;;;;;31.40;13.93;;;;;;;-8.48;93.95;96915.13;5093894;28;20093;-74
2021/01/31 03:37:48;;;;;;;34.67;13.40;;;;;;;-8.47;93.73;96929.47;5093328;28;20044;-74
2021/01/31 03:40:17;;;;;;;41.90;15.38;;;;;;;-8.49;93.58;96931.22;5094489;28;20044;-74
2021/01/31 03:42:45;;;;;;;32.35;12.57;;;;;;;-8.52;92.83;96932.97;5069897;28;665588;-74
2021/01/31 03:45:15;;;;;;;33.25;13.32;;;;;;;-8.53;93.39;96938.91;5095046;28;20117;-73
2021/01/31 03:47:59;;;;;;;37.35;15.20;;;;;;;-8.49;94.23;96935.47;5093594;28;20055;-73
2021/01/31 03:50:26;;;;;;;37.03;14.35;;;;;;;-8.54;94.33;96944.84;5094027;28;20044;-74
2021/01/31 03:52:52;;;;;;;36.95;14.93;;;;;;;-8.56;93.84;96936.41;5095359;28;20393;-74
2021/01/31 03:55:18;;;;;;;52.40;20.65;;;;;;;-8.52;93.73;96945.69;5095271;28;20490;-74
2021/01/31 03:57:49;;;;;;;48.40;18.75;;;;;;;-8.55;93.01;96943.19;5094313;28;20058;-74
2021/01/31 04:00:34;;;;;;;48.70;19.50;;;;;;;-8.48;92.85;96948.16;5094090;28;20050;-74
2021/01/31 04:03:13;;;;;;;46.85;17.38;;;;;;;-8.42;93.12;96949.72;5094908;28;20044;-74
2021/01/31 04:05:51;;;;;;;46.15;17.25;;;;;;;-8.38;93.10;96956.44;5094043;28;20040;-75
2021/01/31 04:08:18;;;;;;;41.88;17.13;;;;;;;-8.44;92.43;96956.56;5093284;28;20089;-74
2021/01/31 04:10:44;;;;;;;43.10;17.88;;;;;;;-8.39;92.37;96959.84;5075410;28;20055;-74
2021/01/31 04:13:12;;;;;;;42.10;18.05;;;;;;;-8.44;92.48;96966.72;5093430;28;20454;-74
2021/01/31 04:15:53;;;;;;;45.45;18.20;;;;;;;-8.42;92.67;96975.13;5094689;28;20403;-74
2021/01/31 04:18:21;;;;;;;47.80;18.33;;;;;;;-8.41;92.90;96976.00;5093276;28;20044;-74
2021/01/31 04:20:49;;;;;;;39.42;15.73;;;;;;;-8.36;93.00;96980.13;5093969;28;20506;-74
2021/01/31 04:23:16;;;;;;;44.22;15.88;;;;;;;-8.34;93.17;96978.41;5093110;28;20055;-74
2021/01/31 04:25:43;;;;;;;44.80;18.88;;;;;;;-8.27;94.13;96990.16;5094276;28;20048;-74
2021/01/31 04:28:20;;;;;;;47.90;18.17;;;;;;;-8.25;93.66;96992.69;5094800;28;20051;-73
2021/01/31 04:30:55;;;;;;;45.83;20.73;;;;;;;-8.22;94.40;96995.19;5094905;28;20131;-73
2021/01/31 04:33:21;;;;;;;45.83;18.00;;;;;;;-8.17;94.68;96979.84;5076855;28;20534;-73
2021/01/31 04:35:47;;;;;;;40.75;19.27;;;;;;;-8.06;95.64;96992.41;5092860;28;20047;-74
2021/01/31 04:38:13;;;;;;;40.05;17.77;;;;;;;-8.01;95.16;96994.03;5094142;28;20052;-73
2021/01/31 04:40:39;;;;;;;46.83;17.70;;;;;;;-8.03;95.37;96995.75;5094234;28;20038;-73
2021/01/31 04:43:11;;;;;;;48.33;17.95;;;;;;;-8.11;95.02;96992.47;5094554;28;20131;-73
2021/01/31 04:45:39;;;;;;;40.75;17.75;;;;;;;-8.09;95.07;97008.56;5093776;28;20442;-73
2021/01/31 04:48:23;;;;;;;39.95;18.05;;;;;;;-8.12;94.88;97001.81;5094231;28;20048;-74
2021/01/31 04:51:08;;;;;;;45.72;17.70;;;;;;;-8.11;95.06;96995.03;5093352;28;20051;-73
2021/01/31 04:54:05;;;;;;;42.45;17.35;;;;;;;-8.12;94.59;96993.38;5092268;28;20059;-73
2021/01/31 04:56:55;;;;;;;46.25;18.92;;;;;;;-8.12;94.74;97001.81;5094388;28;20056;-73
2021/01/31 04:59:37;;;;;;;41.28;18.63;;;;;;;-8.21;94.44;97001.13;5093939;28;20052;-74
2021/01/31 05:02:23;;;;;;;37.75;17.60;;;;;;;-8.32;94.56;96996.19;5092372;28;20044;-73
2021/01/31 05:04:55;;;;;;;36.92;16.60;;;;;;;-8.34;94.44;97013.16;5092507;28;20047;-74
2021/01/31 05:07:31;;;;;;;38.67;17.02;;;;;;;-8.35;94.64;97012.31;5094138;28;20044;-73
2021/01/31 05:09:58;;;;;;;37.80;17.80;;;;;;;-8.32;94.69;97006.38;5092917;28;20074;-74
2021/01/31 05:12:43;;;;;;;42.42;16.60;;;;;;;-8.25;94.43;97007.09;5093965;28;20412;-73
2021/01/31 05:15:29;;;;;;;34.15;15.48;;;;;;;-8.19;94.71;97009.56;5092535;28;20075;-73
2021/01/31 05:17:59;;;;;;;38.75;15.82;;;;;;;-8.19;95.18;97012.09;5094068;28;20048;-74
2021/01/31 05:20:29;;;;;;;35.00;15.45;;;;;;;-8.21;94.76;97013.84;5092962;28;20051;-73
2021/01/31 05:22:58;;;;;;;38.45;16.58;;;;;;;-8.20;94.70;97018.03;5092817;28;20044;-73
2021/01/31 05:25:30;;;;;;;41.58;18.20;;;;;;;-8.28;94.37;97010.53;5093231;28;20139;-74
2021/01/31 05:28:00;;;;;;;42.40;17.85;;;;;;;-8.27;94.83;97024.94;5092935;28;20509;-73
2021/01/31 05:30:28;;;;;;;42.60;18.30;;;;;;;-8.29;94.25;97026.66;5094033;28;20048;-75
2021/01/31 05:33:16;;;;;;;44.72;19.02;;;;;;;-8.34;94.18;97033.47;5092960;28;20052;-74
2021/01/31 05:35:54;;;;;;;44.88;16.50;;;;;;;-8.65;93.88;97044.06;5093004;28;20055;-76
2021/01/31 05:38:35;;;;;;;36.72;15.50;;;;;;;-8.84;95.19;97044.28;5091637;28;20059;-74
2021/01/31 05:41:24;;;;;;;41.25;16.35;;;;;;;-8.84;95.04;97049.38;5092883;28;20048;-74
2021/01/31 05:44:25;;;;;;;39.30;16.25;;;;;;;-8.94;95.50;97041.88;5093723;28;20048;-75
2021/01/31 05:46:56;;;;;;;39.30;15.00;;;;;;;-9.12;94.96;97048.84;5091527;28;20052;-74
2021/01/31 05:49:34;;;;;;;38.90;15.95;;;;;;;-9.12;95.38;97060.72;5093445;28;20138;-74
2021/01/31 05:52:03;;;;;;;41.20;16.30;;;;;;;-9.20;95.11;97055.72;5092901;28;20040;-75
2021/01/31 05:54:34;;;;;;;38.53;15.82;;;;;;;-9.25;95.33;97053.22;5092532;28;20048;-74
2021/01/31 05:57:02;;;;;;;43.42;18.08;;;;;;;-9.21;95.51;97061.63;5093229;28;20048;-74
2021/01/31 05:59:41;;;;;;;51.58;19.83;;;;;;;-9.18;95.49;97061.59;5092902;28;20094;-74
2021/01/31 06:02:08;;;;;;;64.63;22.27;;;;;;;-9.21;95.41;97054.00;5092486;28;20044;-74
2021/01/31 06:04:34;;;;;;;57.75;21.27;;;;;;;-9.13;96.57;97059.84;5092780;28;20075;-74
2021/01/31 06:07:13;;;;;;;64.32;23.13;;;;;;;-9.00;96.44;97068.19;5093342;28;20115;-74
2021/01/31 06:09:48;;;;;;;52.60;22.15;;;;;;;-8.96;96.23;97079.16;5093450;28;20055;-74
2021/01/31 06:12:25;;;;;;;100.45;36.50;;;;;;;-8.91;96.58;97087.56;5092427;28;20496;-74
2021/01/31 06:15:29;;;;;;;68.70;27.50;;;;;;;-8.97;96.08;97090.16;5091911;28;20471;-77
2021/01/31 06:18:02;;;;;;;80.93;28.67;;;;;;;-9.06;96.36;97088.56;5093064;28;20052;-74
2021/01/31 06:20:32;;;;;;;61.33;23.73;;;;;;;-9.07;97.03;97087.72;5091090;28;20044;-76
2021/01/31 06:22:59;;;;;;;65.00;24.88;;;;;;;-9.02;96.67;97101.22;5092653;28;20055;-75
2021/01/31 06:25:27;;;;;;;56.92;23.05;;;;;;;-8.94;96.72;97100.28;5092970;28;20415;-72
2021/01/31 06:28:27;;;;;;;66.97;24.90;;;;;;;-8.92;96.63;97111.28;5092627;28;20119;-75
2021/01/31 06:31:17;;;;;;;66.60;24.27;;;;;;;-9.04;96.07;97105.44;5087293;28;20044;-78
2021/01/31 06:33:44;;;;;;;60.55;23.83;;;;;;;-8.96;96.16;97118.06;5094695;28;20044;-77
2021/01/31 06:36:51;;;;;;;59.70;22.65;;;;;;;-8.83;96.50;97111.19;5095895;28;20092;-78
2021/01/31 06:40:32;;;;;;;54.80;21.40;;;;;;;-8.78;96.78;97114.50;5096095;28;20052;-78
2021/01/31 06:43:10;;;;;;;57.95;21.67;;;;;;;-8.71;96.82;97110.19;5091722;28;20125;-78
2021/01/31 06:46:07;;;;;;;58.67;25.08;;;;;;;-8.50;96.50;97119.28;5095828;28;20407;-78
2021/01/31 06:48:59;;;;;;;52.55;20.70;;;;;;;-8.39;96.44;97107.25;5096720;28;20044;-77
2021/01/31 06:52:02;;;;;;;83.50;27.63;;;;;;;-8.25;96.10;97118.97;5094587;28;20051;-76
2021/01/31 06:54:52;;;;;;;65.90;25.23;;;;;;;-8.18;95.38;97115.50;5097405;28;20051;-72
2021/01/31 06:57:36;;;;;;;58.22;21.20;;;;;;;-8.17;94.05;97122.25;5100153;28;20277;-75
2021/01/31 07:01:23;;;;;;;61.10;23.35;;;;;;;-8.14;93.29;97119.66;5096516;28;20392;-72
2021/01/31 07:04:32;;;;;;;81.00;25.50;;;;;;;-8.62;92.50;97127.06;5073441;28;20056;-78
2021/01/31 07:07:06;;;;;;;55.60;20.95;;;;;;;-8.84;92.57;97129.81;5095200;28;20044;-75
2021/01/31 07:09:52;;;;;;;71.80;25.48;;;;;;;-8.72;92.63;97126.31;5095157;28;20046;-77
2021/01/31 07:12:25;;;;;;;64.65;23.02;;;;;;;-8.53;93.39;97115.06;5094148;28;20442;-74
2021/01/31 07:15:09;;;;;;;63.38;24.75;;;;;;;-8.55;92.87;97124.44;5095779;28;20048;-73
2021/01/31 07:17:42;;;;;;;72.63;24.67;;;;;;;-8.47;91.94;97125.16;5094857;28;20048;-72
2021/01/31 07:20:40;;;;;;;60.35;22.50;;;;;;;-8.39;91.66;97127.59;5093653;28;20046;-73
2021/01/31 07:23:21;;;;;;;80.35;28.63;;;;;;;-8.20;90.89;97122.28;5094398;28;20106;-76
2021/01/31 07:25:54;;;;;;;75.25;28.02;;;;;;;-8.01;90.53;97118.66;5096140;28;20036;-76
2021/01/31 07:28:29;;;;;;;;;;;;;;;-7.88;90.02;97124.41;5095122;28;20048;-77
2021/01/31 07:31:10;;;;;;;85.45;30.60;;;;;;;-7.79;89.23;97129.34;5095676;28;19962;-75
2021/01/31 07:34:11;;;;;;;90.80;31.98;;;;;;;-7.67;89.37;97133.44;5094093;28;20119;-76
2021/01/31 07:37:06;;;;;;;87.72;30.83;;;;;;;-7.39;89.99;97130.47;5094485;28;20040;-76
2021/01/31 07:39:57;;;;;;;88.40;31.30;;;;;;;-7.26;88.02;97134.53;5094678;28;20514;-75
2021/01/31 07:42:26;;;;;;;83.25;32.15;;;;;;;-7.08;87.71;97125.72;5095385;28;20062;-75
2021/01/31 07:45:06;;;;;;;81.40;32.67;;;;;;;-6.90;86.77;97137.31;5092141;28;20044;-74
2021/01/31 07:47:32;;;;;;;84.75;30.30;;;;;;;-6.79;86.96;97132.03;5094223;28;20079;-75
2021/01/31 07:50:04;;;;;;;94.60;32.92;;;;;;;-6.68;86.66;97132.66;5094488;28;20067;-74
2021/01/31 07:52:53;;;;;;;70.88;28.65;;;;;;;-6.68;85.73;97136.94;5094443;28;20062;-74
2021/01/31 07:55:32;;;;;;;80.13;31.75;;;;;;;-6.51;85.37;97124.69;5094021;28;20052;-75
2021/01/31 07:58:25;;;;;;;70.57;29.50;;;;;;;-6.49;85.39;97134.88;5095068;28;20150;-73
2021/01/31 08:00:54;;;;;;;82.60;31.13;;;;;;;-6.29;84.01;97137.03;5094326;28;20056;-74
2021/01/31 08:03:38;;;;;;;77.03;30.35;;;;;;;-6.16;84.95;97138.47;5093471;28;20067;-74
2021/01/31 08:06:31;;;;;;;84.95;32.97;;;;;;;-6.00;84.32;97140.72;5093945;28;20044;-74
2021/01/31 08:08:57;;;;;;;90.13;35.50;;;;;;;-5.67;83.93;97138.28;5094337;28;20044;-72
2021/01/31 08:11:26;;;;;;;85.53;31.65;;;;;;;-5.38;82.08;97145.28;5094308;28;20048;-74
2021/01/31 08:13:53;;;;;;;76.32;30.83;;;;;;;-5.26;80.22;97131.38;5094517;28;20050;-75
2021/01/31 08:16:43;;;;;;;77.78;30.92;;;;;;;-5.19;77.99;97145.66;5094374;28;20426;-74
2021/01/31 08:19:09;;;;;;;68.63;29.73;;;;;;;-5.18;79.96;97143.97;5094134;28;20081;-74
2021/01/31 08:21:54;;;;;;;73.40;29.50;;;;;;;-4.97;78.41;97145.16;5093929;28;20055;-75
2021/01/31 08:25:07;;;;;;;69.22;26.98;;;;;;;-4.77;76.86;97142.94;5094202;28;20051;-74
2021/01/31 08:27:41;;;;;;;69.37;28.97;;;;;;;-4.79;77.03;97144.69;5094293;28;20044;-74
2021/01/31 08:31:01;;;;;;;63.97;27.17;;;;;;;-4.71;77.73;97147.91;5101369;28;20052;-73
2021/01/31 08:33:34;;;;;;;74.78;27.40;;;;;;;-4.61;76.50;97138.28;5082199;28;20048;-76
2021/01/31 08:36:07;;;;;;;61.15;26.98;;;;;;;-4.53;75.79;97145.75;5094760;28;20071;-75
2021/01/31 08:38:35;;;;;;;62.55;23.88;;;;;;;-4.54;75.54;97141.50;5093129;28;20056;-76
2021/01/31 08:41:01;;;;;;;53.97;22.58;;;;;;;-4.54;75.78;97146.59;5093474;28;20501;-75
2021/01/31 08:43:29;;;;;;;47.63;21.70;;;;;;;-4.41;74.01;97144.59;5094464;28;20044;-75
2021/01/31 08:46:13;;;;;;;48.72;22.35;;;;;;;-4.10;74.24;97152.25;5093665;28;20460;-75
2021/01/31 08:48:40;;;;;;;48.58;21.38;;;;;;;-3.86;73.58;97148.16;5094305;28;20044;-76
2021/01/31 08:51:17;;;;;;;58.13;23.38;;;;;;;-3.54;71.39;97138.66;5092579;28;20043;-76
2021/01/31 08:53:43;;;;;;;50.90;23.30;;;;;;;-3.45;69.82;97152.94;5094305;28;20394;-76
2021/01/31 08:56:28;;;;;;;55.97;23.23;;;;;;;-3.62;71.37;97141.44;5093554;28;20507;-76
2021/01/31 08:58:54;;;;;;;57.65;24.05;;;;;;;-3.69;69.80;97139.97;5092764;28;20101;-76
2021/01/31 09:01:19;;;;;;;42.13;16.42;;;;;;;-4.36;70.97;97148.69;5093946;28;20044;-76
2021/01/31 09:03:46;;;;;;;43.30;19.40;;;;;;;-3.80;72.43;97149.69;5093259;28;20529;-76
2021/01/31 09:06:12;;;;;;;33.30;13.43;;;;;;;-4.08;68.92;97150.47;5093364;28;20418;-76
2021/01/31 09:08:43;;;;;;;34.75;15.07;;;;;;;-3.47;67.16;97152.16;5092290;28;20032;-76
2021/01/31 09:11:15;;;;;;;42.00;18.17;;;;;;;-2.62;65.95;97146.88;5092659;28;20043;-76
2021/01/31 09:13:41;;;;;;;;;;;;;;;-2.03;63.98;97143.09;5092677;28;20051;-76
2021/01/31 09:16:24;;;;;;;52.47;21.90;;;;;;;-1.88;64.36;97134.00;5092038;28;20309;-76
2021/01/31 09:19:15;;;;;;;32.05;13.85;;;;;;;-1.29;57.68;97135.16;5093992;28;20074;-77
2021/01/31 09:21:42;;;;;;;42.08;15.60;;;;;;;-0.25;55.85;97142.03;5092327;28;20085;-76
2021/01/31 09:24:13;;;;;;;39.28;16.85;;;;;;;-0.23;55.84;97143.66;5093306;28;20090;-76
2021/01/31 09:26:39;;;;;;;22.23;11.38;;;;;;;1.11;50.57;97133.25;5091867;28;20040;-76
2021/01/31 09:29:10;;;;;;;18.48;9.20;;;;;;;0.03;52.74;97140.84;5091620;28;20094;-75
2021/01/31 09:31:38;;;;;;;22.85;10.25;;;;;;;0.77;51.55;97146.03;5092477;28;20055;-76
2021/01/31 09:34:05;;;;;;;23.45;10.77;;;;;;;2.05;48.23;97142.25;5092152;28;20048;-75
2021/01/31 09:36:35;;;;;;;22.13;10.65;;;;;;;1.40;48.35;97130.06;5092905;28;20144;-76
2021/01/31 09:39:06;;;;;;;14.60;7.72;;;;;;;-0.26;54.10;97142.97;5093461;28;20421;-74
2021/01/31 09:41:33;;;;;;;19.17;8.85;;;;;;;-0.41;53.05;97140.13;5091542;28;20093;-76
2021/01/31 09:44:04;;;;;;;24.02;12.32;;;;;;;-0.71;53.74;97155.13;5093349;28;20372;-76
2021/01/31 09:46:31;;;;;;;22.25;12.18;;;;;;;-0.47;53.71;97153.25;5091971;28;20044;-76
2021/01/31 09:49:26;;;;;;;20.85;11.07;;;;;;;-0.19;52.45;97140.06;5091976;28;20044;-76
2021/01/31 09:51:53;;;;;;;22.05;11.55;;;;;;;1.27;49.03;97133.31;5090014;28;20153;-76
2021/01/31 09:54:29;;;;;;;24.70;12.40;;;;;;;1.32;50.30;97141.69;5091868;28;20040;-77
2021/01/31 09:56:58;;;;;;;17.52;9.65;;;;;;;0.55;50.50;97148.78;5093278;28;20048;-78
2021/01/31 09:59:28;;;;;;;19.88;10.32;;;;;;;0.39;51.22;97151.22;5091650;28;20044;-77
2021/01/31 10:02:08;;;;;;;18.40;9.93;;;;;;;-0.12;50.97;97150.09;5092754;28;20044;-74
2021/01/31 10:04:37;;;;;;;19.48;9.43;;;;;;;0.21;49.24;97141.75;5092413;28;20075;-73
2021/01/31 10:07:21;;;;;;;19.42;10.63;;;;;;;0.57;50.39;97146.13;5092190;28;20047;-74
2021/01/31 10:09:50;;;;;;;25.45;13.27;;;;;;;-0.12;52.62;97140.63;5096049;28;20468;-79
2021/01/31 10:12:35;;;;;;;33.75;14.23;;;;;;;0.03;52.94;97139.09;5096713;28;20058;-74
2021/01/31 10:15:08;;;;;;;24.88;13.40;;;;;;;-0.53;55.57;97138.06;5096822;28;20518;-76
2021/01/31 10:17:33;;;;;;;27.50;14.73;;;;;;;-0.69;56.04;97132.75;5096762;28;20114;-75
2021/01/31 10:20:34;;;;;;;30.38;14.15;;;;;;;-0.52;56.28;97138.94;5096738;28;20067;-77
2021/01/31 10:23:19;;;;;;;25.73;12.95;;;;;;;-1.28;59.36;97139.41;5096446;28;20040;-74
2021/01/31 10:26:00;;;;;;;26.77;11.57;;;;;;;-1.94;59.88;97140.19;5095224;28;20448;-75
2021/01/31 10:28:44;;;;;;;23.67;11.60;;;;;;;-2.11;61.65;97130.53;5078542;28;20532;-73
2021/01/31 10:31:26;;;;;;;29.42;12.45;;;;;;;-1.71;59.69;97146.22;5096637;28;20451;-74
2021/01/31 10:33:53;;;;;;;27.38;12.40;;;;;;;-1.21;56.49;97138.25;5096563;28;20483;-76
2021/01/31 10:36:25;;;;;;;23.10;10.77;;;;;;;-1.73;58.24;97143.69;5096364;28;20426;-75
2021/01/31 10:38:53;;;;;;;;;;;;;;;-2.20;59.70;97144.50;5096454;28;20047;-77
2021/01/31 10:41:20;;;;;;;28.67;13.43;;;;;;;-2.10;61.07;97152.75;5096148;28;20263;-76
2021/01/31 10:44:21;;;;;;;28.58;12.30;;;;;;;-2.34;61.12;97150.13;5096914;28;20044;-77
2021/01/31 10:46:47;;;;;;;26.92;12.20;;;;;;;-2.06;61.86;97138.88;5096630;28;20051;-74
2021/01/31 10:49:13;;;;;;;32.38;14.50;;;;;;;-1.37;57.65;97147.50;5095885;28;20112;-73
2021/01/31 10:51:42;;;;;;;30.42;13.98;;;;;;;-1.17;57.60;97126.97;5095893;28;20063;-72
2021/01/31 10:54:09;;;;;;;28.77;12.85;;;;;;;-1.40;57.98;97127.03;5095891;28;20372;-74
2021/01/31 10:56:35;;;;;;;33.22;12.88;;;;;;;-1.42;57.88;97123.69;5096038;28;20048;-75
2021/01/31 10:59:01;;;;;;;25.77;11.85;;;;;;;-1.50;59.07;97131.69;5095681;28;20075;-76
2021/01/31 11:01:27;;;;;;;30.95;13.43;;;;;;;-0.48;55.19;97136.16;5094902;28;20143;-76
2021/01/31 11:03:53;;;;;;;25.00;12.90;;;;;;;-0.77;56.09;97133.06;5095156;28;20111;-77
2021/01/31 11:06:20;;;;;;;30.27;14.52;;;;;;;-0.45;56.12;97130.03;5095562;28;20071;-77
2021/01/31 11:08:48;;;;;;;27.10;12.95;;;;;;;0.16;52.16;97126.50;5095964;28;20098;-76
2021/01/31 11:11:14;;;;;;;29.90;14.55;;;;;;;0.62;52.67;97126.09;5095960;28;20090;-76
2021/01/31 11:13:40;;;;;;;25.90;13.43;;;;;;;0.60;50.07;97130.50;5095318;28;20073;-76
2021/01/31 11:16:06;;;;;;;26.10;12.38;;;;;;;0.75;51.77;97134.94;5096382;28;20044;-77
2021/01/31 11:18:32;;;;;;;28.65;14.70;;;;;;;1.69;48.71;97127.75;5094466;28;20063;-76
2021/01/31 11:20:58;;;;;;;25.25;12.10;;;;;;;1.14;49.20;97117.63;5096040;28;20047;-77
2021/01/31 11:23:24;;;;;;;35.50;16.05;;;;;;;1.62;47.99;97108.31;5095838;28;20040;-78
2021/01/31 11:25:50;;;;;;;30.35;14.90;;;;;;;1.94;46.01;97123.91;5095543;28;20396;-77
2021/01/31 11:28:17;;;;;;;29.90;14.55;;;;;;;2.41;45.92;97114.53;5095343;28;20470;-79
2021/01/31 11:30:45;;;;;;;31.80;14.73;;;;;;;1.94;47.17;97110.97;5094985;28;20122;-75
2021/01/31 11:33:11;;;;;;;30.67;13.77;;;;;;;2.50;48.14;97109.69;5094904;28;20056;-75
2021/01/31 11:35:38;;;;;;;27.02;15.02;;;;;;;2.59;44.15;97117.88;5095514;28;20044;-77
2021/01/31 11:38:04;;;;;;;26.65;14.07;;;;;;;2.33;44.92;97117.53;5094819;28;20052;-77
2021/01/31 11:40:31;;;;;;;27.70;14.07;;;;;;;2.71;44.82;97104.25;5094919;28;20475;-76
2021/01/31 11:42:58;;;;;;;26.73;13.88;;;;;;;1.64;46.83;97111.66;5095343;28;20059;-77
2021/01/31 11:45:26;;;;;;;26.58;13.57;;;;;;;1.05;47.34;97112.00;5094527;28;20544;-77
2021/01/31 11:47:53;;;;;;;21.42;11.68;;;;;;;0.27;47.71;97115.69;5094969;28;20044;-77
2021/01/31 11:50:20;;;;;;;30.27;13.95;;;;;;;0.97;45.97;97095.22;5094959;28;20055;-77
2021/01/31 11:52:47;;;;;;;28.65;13.38;;;;;;;2.05;45.78;97115.59;5093897;28;20510;-77
2021/01/31 11:55:15;;;;;;;25.05;12.32;;;;;;;1.50;45.90;97106.34;5095263;28;20048;-75
2021/01/31 11:57:40;;;;;;;27.10;13.50;;;;;;;1.73;44.11;97105.16;5094847;28;20044;-78